createdAt,value
2022-11-11T00:01:51.987Z,7.90
2022-11-11T00:04:36.776Z,7.90
2022-11-11T00:07:21.692Z,7.91
2022-11-11T00:10:07.277Z,7.92
2022-11-11T00:12:52.359Z,7.86
2022-11-11T00:15:38.955Z,7.87
2022-11-11T00:22:49.329Z,7.81
2022-11-11T00:25:35.238Z,7.74
2022-11-11T00:28:20.737Z,7.77
2022-11-11T00:31:09.179Z,7.67
2022-11-11T00:33:54.503Z,7.68
2022-11-11T00:36:44.540Z,7.67
2022-11-11T15:41:41.800Z,7.61
2022-11-11T15:44:30.095Z,7.70
2022-11-11T15:47:34.510Z,7.76
2022-11-11T15:50:25.669Z,7.82
2022-11-11T15:53:12.721Z,7.80
2022-11-11T15:56:02.381Z,7.84
2022-11-11T16:01:41.709Z,7.77
2022-11-11T16:04:54.840Z,7.76
2022-11-11T16:07:42.516Z,7.71
2022-11-11T16:10:33.558Z,7.75
2022-11-11T16:13:25.732Z,7.68
2022-11-11T16:16:31.188Z,7.64
2022-11-11T16:19:25.881Z,7.60
2022-11-11T16:22:35.395Z,7.52
2022-11-11T16:25:22.412Z,7.63
2022-11-11T16:31:45.042Z,7.76
2022-11-11T16:35:02.273Z,7.87
2022-11-11T16:37:52.180Z,7.87
2022-11-11T16:40:45.338Z,7.65
2022-11-11T16:43:43.258Z,7.66
2022-11-11T16:46:37.337Z,7.76
2022-11-11T16:49:32.852Z,7.59
2022-11-11T16:52:46.204Z,7.77
2022-11-11T16:55:36.200Z,7.77
2022-11-11T17:04:22.788Z,7.68
2022-11-11T17:07:10.257Z,7.66
2022-11-11T17:10:20.490Z,7.79
2022-11-11T17:13:07.133Z,7.76
2022-11-11T17:15:56.832Z,7.81
2022-11-11T17:18:42.345Z,7.62
2022-11-11T17:21:27.404Z,7.70
2022-11-11T17:24:14.597Z,7.70
2022-11-11T17:27:05.098Z,7.57
2022-11-11T17:29:50.386Z,7.64
2022-11-11T17:32:40.085Z,7.54
2022-11-11T17:35:25.794Z,7.64
2022-11-11T17:41:34.056Z,7.53
2022-11-11T17:44:19.305Z,7.55
2022-11-11T17:47:04.720Z,7.50
2022-11-11T17:49:56.797Z,7.38
2022-11-11T17:52:42.794Z,7.41
2022-11-11T17:55:28.504Z,7.48
2022-11-11T18:01:16.438Z,7.48
2022-11-11T18:04:04.491Z,7.56
2022-11-11T18:06:49.649Z,7.50
2022-11-11T18:09:35.320Z,7.48
2022-11-11T18:12:20.492Z,7.49
2022-11-11T18:15:06.748Z,7.45
2022-11-11T18:24:56.944Z,7.63
2022-11-11T18:27:42.346Z,7.44
2022-11-11T18:34:25.075Z,7.42
2022-11-11T18:37:29.800Z,7.53
2022-11-11T18:40:15.617Z,7.42
2022-11-11T18:43:03.780Z,7.42
2022-11-11T18:45:50.858Z,7.49
2022-11-11T18:48:36.837Z,7.41
2022-11-11T18:51:22.317Z,7.38
2022-11-11T18:54:08.035Z,7.36
2022-11-11T18:56:58.550Z,7.49
2022-11-11T18:59:45.846Z,7.37
2022-11-11T19:02:31.061Z,7.47
2022-11-11T19:05:17.950Z,7.42
2022-11-11T19:08:05.037Z,7.40
2022-11-11T19:10:50.217Z,7.31
2022-11-11T19:13:36.773Z,7.31
2022-11-11T19:16:23.710Z,7.15
2022-11-11T19:19:09.060Z,7.07
2022-11-11T19:21:54.495Z,6.92
2022-11-11T19:24:40.369Z,6.74
2022-11-11T19:27:26.289Z,6.79
2022-11-11T19:30:11.824Z,6.77
2022-11-11T19:32:57.181Z,6.68
2022-11-11T19:35:42.375Z,6.68
2022-11-11T19:38:27.505Z,6.80
2022-11-11T19:41:15.429Z,6.85
2022-11-11T19:44:00.985Z,6.87
2022-11-11T19:46:46.173Z,6.90
2022-11-11T19:49:31.409Z,6.93
2022-11-11T19:52:16.703Z,6.81
2022-11-11T19:55:01.867Z,6.96
2022-11-11T19:57:47.148Z,6.95
2022-11-11T20:00:32.857Z,6.92
2022-11-11T20:03:18.694Z,6.87
2022-11-11T20:06:05.096Z,6.93
2022-11-11T20:08:52.964Z,6.80
2022-11-11T20:11:42.098Z,6.84
2022-11-11T20:14:27.850Z,6.78
2022-11-11T20:17:12.848Z,6.78
2022-11-11T20:19:58.351Z,6.77
2022-11-11T20:22:43.531Z,6.66
2022-11-11T20:25:29.141Z,6.65
2022-11-11T20:28:14.847Z,6.66
2022-11-11T20:31:08.014Z,6.70
2022-11-11T20:33:53.412Z,6.75
2022-11-11T20:36:38.992Z,6.76
2022-11-11T20:39:24.761Z,6.68
2022-11-11T20:42:10.465Z,6.84
2022-11-11T20:44:56.230Z,6.77
2022-11-11T20:47:41.981Z,6.75
2022-11-11T20:50:27.756Z,6.68
2022-11-11T20:53:19.514Z,6.78
2022-11-11T20:56:13.929Z,6.73
2022-11-11T20:58:59.650Z,6.65
2022-11-11T21:01:45.038Z,6.59
2022-11-11T21:04:30.207Z,6.50
2022-11-11T21:07:17.402Z,6.60
2022-11-11T21:10:03.097Z,6.64
2022-11-11T21:12:48.490Z,6.58
2022-11-11T21:15:33.933Z,6.51
2022-11-11T21:18:19.853Z,6.54
2022-11-11T21:21:12.802Z,6.49
2022-11-11T21:24:04.535Z,6.43
2022-11-11T21:27:17.198Z,6.43
2022-11-11T21:30:02.701Z,6.41
2022-11-11T21:32:48.032Z,6.28
2022-11-11T21:35:33.590Z,6.39
2022-11-11T21:39:12.817Z,6.30
2022-11-11T21:41:58.105Z,6.27
2022-11-11T21:44:43.674Z,6.11
2022-11-11T21:47:28.964Z,6.11
2022-11-11T21:50:15.236Z,6.31
2022-11-11T21:53:00.847Z,6.16
2022-11-11T21:55:46.448Z,6.02
2022-11-11T21:58:31.955Z,6.02
2022-11-11T22:01:29.861Z,6.12
2022-11-11T22:04:30.589Z,5.90
2022-11-11T22:07:19.094Z,5.87
2022-11-11T22:10:05.175Z,5.98
2022-11-11T22:12:50.960Z,5.80
2022-11-11T22:15:38.420Z,5.71
2022-11-11T22:18:24.173Z,5.72
2022-11-11T22:21:10.756Z,5.79
2022-11-11T22:23:58.487Z,5.76
2022-11-11T22:26:45.906Z,5.79
2022-11-11T22:29:31.256Z,5.87
2022-11-11T22:32:16.832Z,6.00
2022-11-11T22:35:05.664Z,5.90
2022-11-11T22:37:51.487Z,6.02
2022-11-11T22:40:39.972Z,5.96
2022-11-11T22:43:52.995Z,6.03
2022-11-11T22:46:32.480Z,5.95
2022-11-11T22:49:18.942Z,6.01
2022-11-11T22:52:05.000Z,6.09
2022-11-11T22:54:50.457Z,6.02
2022-11-11T22:57:36.355Z,6.05
2022-11-11T23:00:21.804Z,5.96
2022-11-11T23:03:07.306Z,5.91
2022-11-11T23:05:53.123Z,5.99
2022-11-11T23:08:39.092Z,6.00
2022-11-11T23:11:26.948Z,5.99
2022-11-11T23:14:16.311Z,5.93
2022-11-11T23:17:01.792Z,5.93
2022-11-11T23:19:47.789Z,6.05
2022-11-11T23:22:33.345Z,5.97
2022-11-11T23:25:18.724Z,5.88
2022-11-11T23:28:04.710Z,5.88
2022-11-11T23:30:50.635Z,5.97
2022-11-11T23:33:40.789Z,5.87
2022-11-11T23:36:27.739Z,5.94
2022-11-11T23:39:13.162Z,5.97
2022-11-11T23:42:01.869Z,6.01
2022-11-11T23:44:46.997Z,5.89
2022-11-11T23:47:32.854Z,5.85
2022-11-11T23:50:18.329Z,5.83
2022-11-11T23:53:04.145Z,5.78
2022-11-11T23:55:49.916Z,5.74
2022-11-11T23:58:35.641Z,5.87
